createdAt,value
2023-05-05T00:01:47.735Z,99.90
2023-05-05T00:04:14.590Z,99.90
2023-05-05T00:06:41.306Z,99.90
2023-05-05T00:09:08.004Z,99.90
2023-05-05T00:11:34.637Z,99.90
2023-05-05T00:14:01.442Z,99.90
2023-05-05T00:16:31.090Z,99.90
2023-05-05T00:18:58.904Z,99.90
2023-05-05T00:21:27.777Z,99.90
2023-05-05T00:23:54.646Z,99.90
2023-05-05T00:26:21.328Z,99.90
2023-05-05T00:28:48.525Z,99.90
2023-05-05T00:31:16.815Z,99.90
2023-05-05T00:33:43.556Z,99.90
2023-05-05T00:36:10.488Z,99.90
2023-05-05T00:38:37.183Z,99.90
2023-05-05T00:41:07.203Z,99.90
2023-05-05T00:43:33.873Z,99.90
2023-05-05T00:46:03.715Z,99.90
2023-05-05T00:48:32.596Z,99.90
2023-05-05T00:50:59.660Z,99.90
2023-05-05T00:53:28.236Z,99.90
2023-05-05T00:55:54.975Z,99.90
2023-05-05T00:58:21.674Z,99.90
2023-05-05T01:00:48.756Z,99.90
2023-05-05T01:03:15.598Z,99.90
2023-05-05T01:06:15.592Z,99.90
2023-05-05T01:09:05.175Z,99.90
2023-05-05T01:11:59.693Z,99.90
2023-05-05T01:14:39.693Z,99.90
2023-05-05T01:17:33.739Z,99.90
2023-05-05T01:20:20.445Z,99.90
2023-05-05T01:22:53.029Z,99.90
2023-05-05T01:25:48.031Z,99.90
2023-05-05T01:28:54.994Z,99.90
2023-05-05T01:31:51.554Z,99.90
2023-05-05T01:34:27.424Z,99.90
2023-05-05T01:37:05.266Z,99.90
2023-05-05T01:39:34.900Z,99.90
2023-05-05T01:42:08.116Z,99.90
2023-05-05T01:44:36.997Z,99.90
2023-05-05T01:47:06.171Z,99.90
2023-05-05T01:49:33.926Z,99.90
2023-05-05T01:52:03.695Z,99.90
2023-05-05T01:54:33.512Z,99.90
2023-05-05T01:57:03.555Z,99.90
2023-05-05T01:59:31.527Z,99.90
2023-05-05T02:01:59.600Z,99.90
2023-05-05T02:04:29.168Z,99.90
2023-05-05T02:06:56.946Z,99.90
2023-05-05T02:09:25.435Z,99.90
2023-05-05T02:11:53.015Z,99.90
2023-05-05T02:14:21.390Z,99.90
2023-05-05T02:16:48.780Z,99.90
2023-05-05T02:19:24.426Z,99.90
2023-05-05T02:21:51.192Z,99.90
2023-05-05T02:24:17.959Z,99.90
2023-05-05T02:26:48.313Z,99.90
2023-05-05T02:29:20.880Z,99.90
2023-05-05T02:31:53.715Z,99.90
2023-05-05T02:34:26.828Z,99.90
2023-05-05T02:36:57.719Z,99.90
2023-05-05T02:39:31.477Z,99.90
2023-05-05T02:42:02.987Z,99.90
2023-05-05T02:44:31.862Z,99.90
2023-05-05T02:46:58.944Z,99.90
2023-05-05T02:49:25.756Z,99.90
2023-05-05T02:51:52.439Z,99.90
2023-05-05T02:54:19.818Z,99.90
2023-05-05T02:56:51.190Z,99.90
2023-05-05T02:59:41.698Z,99.90
2023-05-05T03:02:27.999Z,99.90
2023-05-05T03:05:04.195Z,99.90
2023-05-05T03:07:37.296Z,99.90
2023-05-05T03:10:09.491Z,99.90
2023-05-05T03:12:43.017Z,99.90
2023-05-05T03:15:11.100Z,99.90
2023-05-05T03:17:39.717Z,99.90
2023-05-05T03:20:07.730Z,99.90
2023-05-05T03:22:37.255Z,99.90
2023-05-05T03:25:05.039Z,99.90
2023-05-05T03:27:34.536Z,99.90
2023-05-05T03:30:01.276Z,99.90
2023-05-05T03:32:28.957Z,99.90
2023-05-05T03:34:55.684Z,99.90
2023-05-05T03:37:22.396Z,99.90
2023-05-05T03:39:51.854Z,99.90
2023-05-05T03:42:18.583Z,99.90
2023-05-05T03:44:45.242Z,99.90
2023-05-05T03:47:11.882Z,99.90
2023-05-05T03:49:38.567Z,99.90
2023-05-05T03:52:05.561Z,99.90
2023-05-05T03:54:32.321Z,99.90
2023-05-05T03:56:59.979Z,99.90
2023-05-05T03:59:26.930Z,99.90
2023-05-05T04:01:53.582Z,99.90
2023-05-05T04:04:20.403Z,99.90
2023-05-05T04:06:47.132Z,99.90
2023-05-05T04:09:14.498Z,99.90
2023-05-05T04:11:41.283Z,99.90
2023-05-05T04:14:08.026Z,99.90
2023-05-05T04:16:40.341Z,99.90
2023-05-05T04:19:06.979Z,99.90
2023-05-05T04:21:33.645Z,99.90
2023-05-05T04:24:00.504Z,99.90
2023-05-05T04:26:29.940Z,99.90
2023-05-05T04:28:56.634Z,99.90
2023-05-05T04:31:23.505Z,99.90
2023-05-05T04:33:53.193Z,99.90
2023-05-05T04:36:24.113Z,99.90
2023-05-05T04:38:51.145Z,99.90
2023-05-05T04:41:17.863Z,99.90
2023-05-05T04:43:47.641Z,99.90
2023-05-05T04:46:14.415Z,99.90
2023-05-05T04:48:41.221Z,99.90
2023-05-05T04:51:07.950Z,99.90
2023-05-05T04:53:34.660Z,99.90
2023-05-05T04:56:10.368Z,99.90
2023-05-05T04:58:37.043Z,99.90
2023-05-05T05:01:03.789Z,99.90
2023-05-05T05:03:32.029Z,99.90
2023-05-05T05:05:58.854Z,99.90
2023-05-05T05:08:25.578Z,99.90
2023-05-05T05:10:59.702Z,99.90
2023-05-05T05:13:26.412Z,99.90
2023-05-05T05:15:52.936Z,99.90
2023-05-05T05:18:19.578Z,99.90
2023-05-05T05:20:46.378Z,99.90
2023-05-05T05:23:13.081Z,99.90
2023-05-05T05:25:39.766Z,99.90
2023-05-05T05:28:10.981Z,99.90
2023-05-05T05:30:38.001Z,99.90
2023-05-05T05:33:04.806Z,99.90
2023-05-05T05:35:31.529Z,99.90
2023-05-05T05:37:58.323Z,99.90
2023-05-05T05:40:28.268Z,99.90
2023-05-05T05:42:54.988Z,99.90
2023-05-05T05:45:21.921Z,99.90
2023-05-05T05:47:51.436Z,99.90
2023-05-05T05:50:18.285Z,99.90
2023-05-05T05:52:45.022Z,99.90
2023-05-05T05:55:11.841Z,99.90
2023-05-05T05:57:38.768Z,99.90
2023-05-05T06:00:06.281Z,99.90
2023-05-05T06:02:33.122Z,99.90
2023-05-05T06:04:59.854Z,99.90
2023-05-05T06:07:26.630Z,99.90
2023-05-05T06:09:53.331Z,99.90
2023-05-05T06:12:29.255Z,98.30
2023-05-05T06:14:55.933Z,97.20
2023-05-05T06:17:25.846Z,95.20
2023-05-05T06:19:54.076Z,94.40
2023-05-05T06:22:21.187Z,94.60
2023-05-05T06:24:50.691Z,94.20
2023-05-05T06:27:17.426Z,94.00
2023-05-05T06:29:44.127Z,93.90
2023-05-05T06:32:12.599Z,93.80
2023-05-05T06:34:39.364Z,93.50
2023-05-05T06:37:06.125Z,93.40
2023-05-05T06:39:32.810Z,93.50
2023-05-05T06:41:59.477Z,92.90
2023-05-05T06:44:26.195Z,92.10
2023-05-05T06:46:54.189Z,91.90
2023-05-05T06:49:20.854Z,91.50
2023-05-05T06:51:48.308Z,91.00
2023-05-05T06:54:14.979Z,91.10
2023-05-05T06:56:41.665Z,90.60
2023-05-05T06:59:08.384Z,89.80
2023-05-05T07:01:35.097Z,89.00
2023-05-05T07:04:01.840Z,87.50
2023-05-05T07:06:32.095Z,87.20
2023-05-05T07:08:58.784Z,85.90
2023-05-05T07:11:25.647Z,83.80
2023-05-05T07:13:52.362Z,81.90
2023-05-05T07:16:19.146Z,77.30
2023-05-05T07:18:47.962Z,75.90
2023-05-05T07:21:14.665Z,80.20
2023-05-05T07:23:41.460Z,73.00
2023-05-05T07:26:08.233Z,75.20
2023-05-05T07:28:35.128Z,74.30
2023-05-05T07:31:02.081Z,73.70
2023-05-05T07:33:28.703Z,73.40
2023-05-05T07:35:55.488Z,73.10
2023-05-05T07:38:22.190Z,72.40
2023-05-05T07:40:48.810Z,71.90
2023-05-05T07:43:18.614Z,70.40
2023-05-05T07:45:45.565Z,70.20
2023-05-05T07:48:12.299Z,70.00
2023-05-05T07:50:42.128Z,68.80
2023-05-05T07:53:14.641Z,68.60
2023-05-05T07:55:42.082Z,68.10
2023-05-05T07:58:10.729Z,68.00
2023-05-05T08:00:37.791Z,66.70
2023-05-05T08:03:09.669Z,66.50
2023-05-05T08:05:38.336Z,66.60
2023-05-05T08:08:14.016Z,65.10
2023-05-05T08:10:40.746Z,65.80
2023-05-05T08:13:07.463Z,66.60
2023-05-05T08:15:34.123Z,65.70
2023-05-05T08:18:00.828Z,64.70
2023-05-05T08:20:29.055Z,65.20
2023-05-05T08:22:55.983Z,65.80
2023-05-05T08:25:22.722Z,66.00
2023-05-05T08:27:49.355Z,64.40
2023-05-05T08:30:19.493Z,65.10
2023-05-05T08:32:46.873Z,65.30
2023-05-05T08:35:13.880Z,64.80
2023-05-05T08:37:40.732Z,64.70
2023-05-05T08:40:08.112Z,64.60
2023-05-05T08:42:38.428Z,64.50
2023-05-05T08:45:07.714Z,64.70
2023-05-05T08:47:36.742Z,64.80
2023-05-05T08:50:05.687Z,64.20
2023-05-05T08:52:45.519Z,63.10
2023-05-05T08:55:18.886Z,63.10
2023-05-05T08:57:52.325Z,62.30
2023-05-05T09:00:22.806Z,62.80
2023-05-05T09:02:50.087Z,62.70
2023-05-05T09:05:17.821Z,62.70
2023-05-05T09:07:47.841Z,61.80
2023-05-05T09:10:14.761Z,62.30
2023-05-05T09:12:41.983Z,61.50
2023-05-05T09:15:14.417Z,59.70
2023-05-05T09:17:42.100Z,59.50
2023-05-05T09:20:12.079Z,59.90
2023-05-05T09:22:41.127Z,59.50
2023-05-05T09:25:10.318Z,59.00
2023-05-05T09:27:41.735Z,58.20
2023-05-05T09:30:14.304Z,56.60
2023-05-05T09:32:43.732Z,55.80
2023-05-05T09:35:10.448Z,53.90
2023-05-05T09:37:38.520Z,53.70
2023-05-05T09:40:06.808Z,51.10
2023-05-05T09:42:34.685Z,51.10
2023-05-05T09:45:01.333Z,50.70
2023-05-05T09:47:36.601Z,49.40
2023-05-05T09:50:04.245Z,49.80
2023-05-05T09:52:31.972Z,47.30
2023-05-05T09:54:58.731Z,46.50
2023-05-05T09:57:27.298Z,45.70
2023-05-05T09:59:59.186Z,44.90
2023-05-05T10:02:41.833Z,43.80
2023-05-05T10:05:14.249Z,44.40
2023-05-05T10:07:42.780Z,43.10
2023-05-05T10:10:12.296Z,42.90
2023-05-05T10:12:39.444Z,42.40
2023-05-05T10:15:08.144Z,42.00
2023-05-05T10:17:38.079Z,41.20
2023-05-05T10:20:09.721Z,42.40
2023-05-05T10:22:38.241Z,42.90
2023-05-05T10:25:14.186Z,42.00
2023-05-05T10:27:44.767Z,42.60
2023-05-05T10:30:19.846Z,41.60
2023-05-05T10:33:03.999Z,41.40
2023-05-05T10:35:41.620Z,40.90
2023-05-05T10:38:09.782Z,39.20
2023-05-05T10:40:36.533Z,40.00
2023-05-05T10:43:03.953Z,40.20
2023-05-05T10:45:31.059Z,39.80
2023-05-05T10:48:00.662Z,38.90
2023-05-05T10:50:33.248Z,39.20
2023-05-05T10:53:16.581Z,39.20
2023-05-05T10:56:04.201Z,38.30
2023-05-05T10:58:55.411Z,37.10
2023-05-05T11:01:34.505Z,37.80
2023-05-05T11:04:21.821Z,37.90
2023-05-05T11:07:09.814Z,39.00
2023-05-05T11:10:02.642Z,40.40
2023-05-05T11:12:35.525Z,39.40
2023-05-05T11:15:26.674Z,39.20
2023-05-05T11:17:56.074Z,39.60
2023-05-05T11:20:39.889Z,40.90
2023-05-05T11:23:06.859Z,39.00
2023-05-05T11:25:37.170Z,39.80
2023-05-05T11:28:11.187Z,41.60
2023-05-05T11:30:59.207Z,42.50
2023-05-05T11:33:29.161Z,44.30
2023-05-05T11:35:57.620Z,47.30
2023-05-05T11:38:47.053Z,50.40
2023-05-05T11:41:30.184Z,51.80
2023-05-05T11:44:13.253Z,55.40
2023-05-05T11:46:41.589Z,59.30
2023-05-05T11:49:09.317Z,61.00
2023-05-05T11:51:36.426Z,63.00
2023-05-05T11:54:03.239Z,65.70
2023-05-05T11:56:29.943Z,65.40
2023-05-05T11:59:11.992Z,64.70
2023-05-05T12:01:41.153Z,64.30
2023-05-05T12:04:12.693Z,63.90
2023-05-05T12:06:40.273Z,66.50
2023-05-05T12:09:14.314Z,67.60
2023-05-05T12:11:59.661Z,68.60
2023-05-05T12:14:26.923Z,68.60
2023-05-05T12:16:58.691Z,69.10
2023-05-05T12:19:30.153Z,67.00
2023-05-05T12:21:57.216Z,67.00
2023-05-05T12:24:24.038Z,65.90
2023-05-05T12:26:51.650Z,63.80
2023-05-05T12:29:29.526Z,61.50
2023-05-05T12:31:58.164Z,61.50
2023-05-05T12:34:24.947Z,60.70
2023-05-05T12:36:51.921Z,60.00
2023-05-05T12:39:18.681Z,55.80
2023-05-05T12:41:45.484Z,56.50
2023-05-05T12:44:12.248Z,56.20
2023-05-05T12:46:47.444Z,57.20
2023-05-05T12:49:14.656Z,56.40
2023-05-05T12:51:54.043Z,57.30
2023-05-05T12:54:21.157Z,57.50
2023-05-05T12:56:48.241Z,55.60
2023-05-05T12:59:22.238Z,54.10
2023-05-05T13:01:52.770Z,54.90
2023-05-05T13:04:21.362Z,55.20
2023-05-05T13:06:49.440Z,50.00
2023-05-05T13:09:25.872Z,49.00
2023-05-05T13:11:53.516Z,48.50
2023-05-05T13:14:20.848Z,48.40
2023-05-05T13:16:47.758Z,48.70
2023-05-05T13:19:14.446Z,47.50
2023-05-05T13:21:41.795Z,48.90
2023-05-05T13:24:23.683Z,50.30
2023-05-05T13:26:56.469Z,51.40
2023-05-05T13:29:26.119Z,52.20
2023-05-05T13:31:54.947Z,53.10
2023-05-05T13:34:21.726Z,53.60
2023-05-05T13:36:48.493Z,54.90
2023-05-05T13:39:15.144Z,55.50
2023-05-05T13:41:41.856Z,56.50
2023-05-05T13:44:08.578Z,57.30
2023-05-05T13:46:35.407Z,58.20
2023-05-05T13:49:02.148Z,58.40
2023-05-05T13:51:29.468Z,59.10
2023-05-05T13:53:56.241Z,59.90
2023-05-05T13:56:26.048Z,60.60
2023-05-05T13:58:52.801Z,61.00
2023-05-05T14:01:19.658Z,62.00
2023-05-05T14:03:46.399Z,62.50
2023-05-05T14:06:13.118Z,63.10
2023-05-05T14:08:39.864Z,64.60
2023-05-05T14:11:06.704Z,65.30
2023-05-05T14:13:33.382Z,67.50
2023-05-05T14:16:00.236Z,70.40
2023-05-05T14:18:28.026Z,67.90
2023-05-05T14:20:54.771Z,68.90
2023-05-05T14:23:21.508Z,69.80
2023-05-05T14:25:48.224Z,71.50
2023-05-05T14:28:14.865Z,72.40
2023-05-05T14:30:41.964Z,73.30
2023-05-05T14:33:08.668Z,72.70
2023-05-05T14:35:35.453Z,71.70
2023-05-05T14:38:02.156Z,71.60
2023-05-05T14:40:30.252Z,72.30
2023-05-05T14:42:57.717Z,72.00
2023-05-05T14:45:24.460Z,69.30
2023-05-05T14:47:51.161Z,66.70
2023-05-05T14:50:17.814Z,67.10
2023-05-05T14:52:44.628Z,65.70
2023-05-05T14:55:11.810Z,65.70
2023-05-05T14:57:38.828Z,64.30
2023-05-05T15:00:07.006Z,62.00
2023-05-05T15:02:33.902Z,62.00
2023-05-05T15:05:00.776Z,61.60
2023-05-05T15:07:29.100Z,62.10
2023-05-05T15:09:56.443Z,60.10
2023-05-05T15:12:23.379Z,59.60
2023-05-05T15:14:49.980Z,59.50
2023-05-05T15:17:16.642Z,59.10
2023-05-05T15:19:43.337Z,57.40
2023-05-05T15:22:10.061Z,57.30
2023-05-05T15:24:37.170Z,56.40
2023-05-05T15:27:04.145Z,56.50
2023-05-05T15:29:32.956Z,57.00
2023-05-05T15:31:59.772Z,57.50
2023-05-05T15:34:26.719Z,57.60
2023-05-05T15:36:53.968Z,58.60
2023-05-05T15:39:20.739Z,60.20
2023-05-05T15:41:48.038Z,62.30
2023-05-05T15:44:14.854Z,63.30
2023-05-05T15:46:41.662Z,65.90
2023-05-05T15:49:08.420Z,73.60
2023-05-05T15:51:35.294Z,76.90
2023-05-05T15:54:02.020Z,80.00
2023-05-05T15:56:29.286Z,82.00
2023-05-05T15:58:56.736Z,82.90
2023-05-05T16:01:23.511Z,84.10
2023-05-05T16:03:50.355Z,85.10
2023-05-05T16:06:17.069Z,85.80
2023-05-05T16:08:43.839Z,87.20
2023-05-05T16:11:10.569Z,88.90
2023-05-05T16:13:39.026Z,90.20
2023-05-05T16:16:06.809Z,91.40
2023-05-05T16:18:33.517Z,92.80
2023-05-05T16:21:00.153Z,93.20
2023-05-05T16:23:26.922Z,93.40
2023-05-05T16:25:53.593Z,93.40
2023-05-05T16:28:20.336Z,92.90
2023-05-05T16:30:47.135Z,93.30
2023-05-05T16:33:14.106Z,93.00
2023-05-05T16:35:44.244Z,92.50
2023-05-05T16:38:11.420Z,92.10
2023-05-05T16:40:38.348Z,92.30
2023-05-05T16:43:05.306Z,92.60
2023-05-05T16:45:32.163Z,92.00
2023-05-05T16:47:58.963Z,93.40
2023-05-05T16:50:26.097Z,93.70
2023-05-05T16:52:52.788Z,93.00
2023-05-05T16:55:19.588Z,93.20
2023-05-05T16:57:47.212Z,92.60
2023-05-05T17:00:14.518Z,92.90
2023-05-05T17:02:41.425Z,93.20
2023-05-05T17:05:08.849Z,93.90
2023-05-05T17:07:35.820Z,94.50
2023-05-05T17:10:02.478Z,95.20
2023-05-05T17:12:29.172Z,96.30
2023-05-05T17:14:55.904Z,97.60
2023-05-05T17:17:22.765Z,99.40
2023-05-05T17:19:49.458Z,99.90
2023-05-05T17:22:16.448Z,99.90
2023-05-05T17:24:43.211Z,99.90
2023-05-05T17:27:09.892Z,99.90
2023-05-05T17:29:40.708Z,99.90
2023-05-05T17:32:08.652Z,99.90
2023-05-05T17:34:35.807Z,99.90
2023-05-05T17:37:02.587Z,99.90
2023-05-05T17:39:29.930Z,99.90
2023-05-05T17:41:56.698Z,99.90
2023-05-05T17:44:23.459Z,99.90
2023-05-05T17:46:50.113Z,99.90
2023-05-05T17:49:16.794Z,99.90
2023-05-05T17:51:43.582Z,99.90
2023-05-05T17:54:10.192Z,99.90
2023-05-05T17:56:37.944Z,99.90
2023-05-05T17:59:04.682Z,99.90
2023-05-05T18:01:31.366Z,99.90
2023-05-05T18:04:00.096Z,99.90
2023-05-05T18:06:28.037Z,99.90
2023-05-05T18:08:54.724Z,99.90
2023-05-05T18:11:23.746Z,99.90
2023-05-05T18:13:50.428Z,99.90
2023-05-05T18:16:17.213Z,99.90
2023-05-05T18:18:46.760Z,99.90
2023-05-05T18:21:13.541Z,99.90
2023-05-05T18:23:40.561Z,99.90
2023-05-05T18:26:08.992Z,99.90
2023-05-05T18:28:36.797Z,99.90
2023-05-05T18:31:03.586Z,99.90
2023-05-05T18:33:30.234Z,99.90
2023-05-05T18:35:57.724Z,99.90
2023-05-05T18:38:24.708Z,99.90
2023-05-05T18:40:51.427Z,99.90
2023-05-05T18:43:18.184Z,99.90
2023-05-05T18:45:45.220Z,99.90
2023-05-05T18:48:12.131Z,99.90
2023-05-05T18:50:38.917Z,99.90
2023-05-05T18:53:05.603Z,99.90
2023-05-05T18:55:32.369Z,99.90
2023-05-05T18:57:59.045Z,99.90
2023-05-05T19:00:25.676Z,99.90
2023-05-05T19:02:52.361Z,99.90
2023-05-05T19:05:19.273Z,99.90
2023-05-05T19:07:46.097Z,99.90
2023-05-05T19:10:13.161Z,99.90
2023-05-05T19:12:39.920Z,99.90
2023-05-05T19:15:07.589Z,99.90
2023-05-05T19:17:34.427Z,99.90
2023-05-05T19:20:01.139Z,99.90
2023-05-05T19:22:27.783Z,99.90
2023-05-05T19:24:54.510Z,99.90
2023-05-05T19:27:21.466Z,99.90
2023-05-05T19:29:52.332Z,99.90
2023-05-05T19:32:20.795Z,99.90
2023-05-05T19:34:47.989Z,99.90
2023-05-05T19:37:14.707Z,99.90
2023-05-05T19:39:44.249Z,99.90
2023-05-05T19:42:11.123Z,99.90
2023-05-05T19:44:37.851Z,99.90
2023-05-05T19:47:04.865Z,99.90
2023-05-05T19:49:31.875Z,99.90
2023-05-05T19:51:58.933Z,99.90
2023-05-05T19:54:26.211Z,99.90
2023-05-05T19:56:55.232Z,99.90
2023-05-05T19:59:22.098Z,99.90
2023-05-05T20:01:48.917Z,99.90
2023-05-05T20:04:15.649Z,99.90
2023-05-05T20:06:42.367Z,99.90
2023-05-05T20:09:09.174Z,99.90
2023-05-05T20:11:36.040Z,99.90
2023-05-05T20:14:02.747Z,99.90
2023-05-05T20:16:29.608Z,99.90
2023-05-05T20:18:56.500Z,99.90
2023-05-05T20:21:23.245Z,99.90
2023-05-05T20:23:50.029Z,99.90
2023-05-05T20:26:17.075Z,99.90
2023-05-05T20:28:45.656Z,99.90
2023-05-05T20:31:15.103Z,99.90
2023-05-05T20:33:41.898Z,99.90
2023-05-05T20:36:08.675Z,99.90
2023-05-05T20:38:35.294Z,99.90
2023-05-05T20:41:02.108Z,99.90
2023-05-05T20:43:28.918Z,99.90
2023-05-05T20:45:55.680Z,99.90
2023-05-05T20:48:22.476Z,99.90
2023-05-05T20:50:51.006Z,99.90
2023-05-05T20:53:19.154Z,99.90
2023-05-05T20:55:45.969Z,99.90
2023-05-05T20:58:12.936Z,99.90
2023-05-05T21:00:39.762Z,99.90
2023-05-05T21:03:06.591Z,99.90
2023-05-05T21:05:33.405Z,99.90
2023-05-05T21:08:01.044Z,99.90
2023-05-05T21:10:28.937Z,99.90
2023-05-05T21:12:55.878Z,99.90
2023-05-05T21:15:22.796Z,99.90
2023-05-05T21:17:49.526Z,99.90
2023-05-05T21:20:16.512Z,99.90
2023-05-05T21:22:43.238Z,99.90
2023-05-05T21:25:12.313Z,99.90
2023-05-05T21:27:39.085Z,99.90
2023-05-05T21:30:08.547Z,99.90
2023-05-05T21:32:37.847Z,99.90
2023-05-05T21:35:06.126Z,99.90
2023-05-05T21:37:32.990Z,99.90
2023-05-05T21:39:59.782Z,99.90
2023-05-05T21:42:28.750Z,99.90
2023-05-05T21:44:55.450Z,99.90
2023-05-05T21:47:22.196Z,99.90
2023-05-05T21:49:49.185Z,99.90
2023-05-05T21:52:15.861Z,99.90
2023-05-05T21:54:42.615Z,99.90
2023-05-05T21:57:09.363Z,99.90
2023-05-05T21:59:36.126Z,99.90
2023-05-05T22:02:02.858Z,99.90
2023-05-05T22:04:29.622Z,99.90
2023-05-05T22:06:56.448Z,99.90
2023-05-05T22:09:23.208Z,99.90
2023-05-05T22:11:50.665Z,99.90
2023-05-05T22:14:17.453Z,99.90
2023-05-05T22:16:44.272Z,99.90
2023-05-05T22:19:11.025Z,99.90
2023-05-05T22:21:37.758Z,99.90
2023-05-05T22:24:05.320Z,99.90
2023-05-05T22:26:32.026Z,99.90
2023-05-05T22:28:58.769Z,99.90
2023-05-05T22:31:25.635Z,99.90
2023-05-05T22:33:52.302Z,99.90
2023-05-05T22:36:19.032Z,99.90
2023-05-05T22:38:45.685Z,99.90
2023-05-05T22:41:12.443Z,99.90
2023-05-05T22:43:39.195Z,99.90
2023-05-05T22:46:05.945Z,99.90
2023-05-05T22:48:32.648Z,99.90
2023-05-05T22:50:59.810Z,99.90
2023-05-05T22:53:26.589Z,99.90
2023-05-05T22:55:53.278Z,99.90
2023-05-05T22:58:20.930Z,99.90
2023-05-05T23:00:47.729Z,99.90
2023-05-05T23:03:14.607Z,99.90
2023-05-05T23:05:41.332Z,99.90
2023-05-05T23:08:08.048Z,99.90
2023-05-05T23:10:34.720Z,99.90
2023-05-05T23:13:01.434Z,99.90
2023-05-05T23:15:28.665Z,99.90
2023-05-05T23:18:01.291Z,99.90
2023-05-05T23:20:28.089Z,99.90
2023-05-05T23:22:55.618Z,99.90
2023-05-05T23:25:22.273Z,99.90
2023-05-05T23:27:48.965Z,99.90
2023-05-05T23:30:15.817Z,99.90
2023-05-05T23:32:44.717Z,99.90
2023-05-05T23:35:11.624Z,99.90
2023-05-05T23:37:38.586Z,99.90
2023-05-05T23:40:06.822Z,99.90
2023-05-05T23:42:33.509Z,99.90
2023-05-05T23:45:00.189Z,99.90
2023-05-05T23:47:27.027Z,99.90
2023-05-05T23:49:53.699Z,99.90
2023-05-05T23:52:20.838Z,99.90
2023-05-05T23:54:47.524Z,99.90
2023-05-05T23:57:14.205Z,99.90
2023-05-05T23:59:41.149Z,99.90
